createdAt,value
2018-05-15T00:02:14.724Z,17.27
2018-05-15T00:04:43.733Z,11.93
2018-05-15T00:07:11.998Z,10.97
2018-05-15T00:09:40.217Z,8.27
2018-05-15T00:12:08.494Z,10.77
2018-05-15T00:14:36.750Z,9.20
2018-05-15T00:17:05.005Z,7.70
2018-05-15T00:19:33.986Z,8.13
2018-05-15T00:22:02.215Z,9.60
2018-05-15T00:24:30.457Z,8.90
2018-05-15T00:26:59.474Z,8.97
2018-05-15T00:29:27.730Z,8.80
2018-05-15T00:31:56.756Z,8.97
2018-05-15T00:34:25.006Z,7.47
2018-05-15T00:36:53.248Z,7.07
2018-05-15T00:39:21.528Z,8.40
2018-05-15T00:41:49.775Z,8.10
2018-05-15T00:44:18.063Z,7.97
2018-05-15T00:46:46.375Z,8.03
2018-05-15T00:49:15.535Z,7.20
2018-05-15T00:51:43.855Z,9.03
2018-05-15T00:54:12.106Z,7.67
2018-05-15T00:56:40.408Z,7.00
2018-05-15T00:59:08.634Z,8.80
2018-05-15T01:01:36.902Z,6.80
2018-05-15T01:04:05.197Z,7.30
2018-05-15T01:06:33.458Z,8.07
2018-05-15T01:09:01.685Z,8.10
2018-05-15T01:11:29.988Z,10.77
2018-05-15T01:13:58.253Z,10.47
2018-05-15T01:16:27.232Z,7.87
2018-05-15T01:18:55.559Z,9.17
2018-05-15T01:21:23.860Z,9.63
2018-05-15T01:23:52.099Z,11.20
2018-05-15T01:26:20.481Z,6.90
2018-05-15T01:28:48.740Z,8.77
2018-05-15T01:31:17.013Z,8.23
2018-05-15T01:33:45.274Z,7.90
2018-05-15T01:36:14.288Z,10.47
2018-05-15T01:38:42.693Z,10.00
2018-05-15T01:41:10.958Z,10.30
2018-05-15T01:43:39.171Z,7.10
2018-05-15T01:46:07.415Z,10.47
2018-05-15T01:48:35.691Z,8.63
2018-05-15T01:51:03.974Z,8.43
2018-05-15T01:53:32.187Z,7.87
2018-05-15T01:56:01.222Z,8.87
2018-05-15T01:58:29.516Z,10.10
2018-05-15T02:00:57.737Z,10.73
2018-05-15T02:03:26.007Z,7.27
2018-05-15T02:05:54.273Z,10.90
2018-05-15T02:08:22.531Z,9.20
2018-05-15T02:10:50.792Z,12.13
2018-05-15T02:13:19.032Z,8.40
2018-05-15T02:15:47.289Z,12.03
2018-05-15T02:18:15.555Z,13.00
2018-05-15T02:20:43.805Z,12.40
2018-05-15T02:23:12.038Z,11.93
2018-05-15T02:25:40.367Z,13.47
2018-05-15T02:28:08.734Z,10.07
2018-05-15T02:30:37.017Z,10.77
2018-05-15T02:33:05.240Z,11.63
2018-05-15T02:35:33.469Z,11.00
2018-05-15T02:38:01.724Z,10.00
2018-05-15T02:40:29.939Z,8.93
2018-05-15T02:42:58.193Z,11.67
2018-05-15T02:45:26.447Z,8.90
2018-05-15T02:47:54.733Z,9.33
2018-05-15T02:50:23.015Z,8.37
2018-05-15T02:52:51.353Z,12.63
2018-05-15T02:55:19.635Z,10.90
2018-05-15T02:57:48.061Z,10.63
2018-05-15T03:00:16.319Z,12.80
2018-05-15T03:02:45.324Z,10.17
2018-05-15T03:05:13.580Z,9.20
2018-05-15T03:07:41.851Z,16.63
2018-05-15T03:10:10.902Z,10.23
2018-05-15T03:12:39.140Z,11.43
2018-05-15T03:15:07.375Z,13.97
2018-05-15T03:17:35.648Z,15.80
2018-05-15T03:20:03.889Z,13.30
2018-05-15T03:22:32.149Z,10.23
2018-05-15T03:25:00.372Z,11.57
2018-05-15T03:27:28.707Z,8.47
2018-05-15T03:29:57.044Z,9.07
2018-05-15T03:32:25.327Z,11.77
2018-05-15T03:34:54.371Z,11.93
2018-05-15T03:37:22.715Z,13.80
2018-05-15T03:39:51.736Z,12.60
2018-05-15T03:42:19.991Z,13.83
2018-05-15T03:44:49.777Z,11.10
2018-05-15T03:47:18.863Z,11.23
2018-05-15T03:49:47.118Z,11.77
2018-05-15T03:52:15.404Z,13.13
2018-05-15T03:54:43.619Z,11.00
2018-05-15T03:57:11.882Z,9.57
2018-05-15T03:59:40.130Z,16.80
2018-05-15T04:02:20.153Z,11.80
2018-05-15T04:05:00.672Z,10.83
2018-05-15T04:07:41.457Z,10.83
2018-05-15T04:10:10.657Z,10.83
2018-05-15T04:12:38.893Z,12.40
2018-05-15T04:15:07.154Z,11.20
2018-05-15T04:17:36.165Z,13.10
2018-05-15T04:20:04.392Z,10.03
2018-05-15T04:22:32.669Z,10.33
2018-05-15T04:25:00.896Z,11.43
2018-05-15T04:27:29.134Z,11.90
2018-05-15T04:29:57.374Z,9.27
2018-05-15T04:32:26.511Z,13.07
2018-05-15T04:34:54.798Z,9.53
2018-05-15T04:37:23.049Z,11.97
2018-05-15T04:39:51.398Z,15.27
2018-05-15T04:42:20.425Z,11.17
2018-05-15T04:44:48.715Z,9.93
2018-05-15T04:47:16.939Z,11.20
2018-05-15T04:49:45.207Z,10.10
2018-05-15T04:52:13.671Z,12.13
2018-05-15T04:54:42.689Z,11.43
2018-05-15T04:57:10.979Z,10.17
2018-05-15T04:59:40.075Z,12.77
2018-05-15T05:02:08.591Z,14.27
2018-05-15T05:04:36.765Z,11.67
2018-05-15T05:07:05.151Z,19.00
2018-05-15T05:09:33.372Z,13.23
2018-05-15T05:12:01.859Z,11.30
2018-05-15T05:14:30.897Z,10.40
2018-05-15T05:16:59.138Z,9.70
2018-05-15T05:19:28.179Z,14.17
2018-05-15T05:21:56.479Z,16.97
2018-05-15T05:24:24.741Z,18.43
2018-05-15T05:26:53.630Z,13.93
2018-05-15T05:29:21.937Z,10.63
2018-05-15T05:31:50.180Z,12.43
2018-05-15T05:34:18.461Z,11.87
2018-05-15T05:36:46.685Z,17.10
2018-05-15T05:39:15.033Z,10.90
2018-05-15T05:41:43.315Z,11.80
2018-05-15T05:44:11.544Z,10.10
2018-05-15T05:46:39.816Z,18.03
2018-05-15T05:49:08.063Z,10.00
2018-05-15T05:51:36.296Z,13.07
2018-05-15T05:54:04.579Z,12.30
2018-05-15T05:56:32.904Z,9.47
2018-05-15T05:59:01.195Z,13.13
2018-05-15T06:01:29.524Z,12.53
2018-05-15T06:03:57.874Z,13.53
2018-05-15T06:06:26.132Z,15.07
2018-05-15T06:08:54.375Z,12.00
2018-05-15T06:11:23.396Z,15.27
2018-05-15T06:13:52.389Z,11.00
2018-05-15T06:16:20.629Z,13.97
2018-05-15T06:18:48.852Z,13.10
2018-05-15T06:21:17.158Z,10.40
2018-05-15T06:23:45.395Z,12.33
2018-05-15T06:26:13.670Z,10.77
2018-05-15T06:28:41.916Z,11.67
2018-05-15T06:31:10.180Z,9.60
2018-05-15T06:33:38.411Z,9.53
2018-05-15T06:36:06.640Z,11.10
2018-05-15T06:38:34.907Z,11.30
2018-05-15T06:41:03.183Z,12.07
2018-05-15T06:43:31.403Z,15.23
2018-05-15T06:45:59.675Z,12.43
2018-05-15T06:48:28.016Z,12.93
2018-05-15T06:50:56.253Z,12.10
2018-05-15T06:53:24.519Z,17.43
2018-05-15T06:55:52.764Z,13.30
2018-05-15T06:58:22.979Z,17.50
2018-05-15T07:00:51.233Z,14.53
2018-05-15T07:03:19.528Z,12.60
2018-05-15T07:05:47.774Z,12.63
2018-05-15T07:08:16.320Z,9.70
2018-05-15T07:10:44.537Z,10.30
2018-05-15T07:13:12.804Z,9.60
2018-05-15T07:15:41.028Z,9.60
2018-05-15T07:18:09.247Z,16.73
2018-05-15T07:20:37.579Z,15.17
2018-05-15T07:23:05.804Z,11.17
2018-05-15T07:25:34.065Z,10.57
2018-05-15T07:28:02.304Z,14.23
2018-05-15T07:30:30.603Z,11.93
2018-05-15T07:32:58.862Z,14.83
2018-05-15T07:35:27.886Z,10.63
2018-05-15T07:37:56.893Z,8.83
2018-05-15T07:40:25.154Z,14.53
2018-05-15T07:42:53.411Z,12.93
2018-05-15T07:45:22.430Z,9.43
2018-05-15T07:47:50.711Z,11.43
2018-05-15T07:50:18.952Z,13.80
2018-05-15T07:52:47.987Z,13.00
2018-05-15T07:55:16.222Z,13.77
2018-05-15T07:57:45.257Z,13.63
2018-05-15T08:00:13.520Z,16.17
2018-05-15T08:02:41.744Z,12.43
2018-05-15T08:05:09.994Z,8.37
2018-05-15T08:07:38.212Z,14.97
2018-05-15T08:10:06.471Z,11.43
2018-05-15T08:12:34.702Z,11.03
2018-05-15T08:15:02.992Z,8.73
2018-05-15T08:17:31.261Z,11.50
2018-05-15T08:19:59.597Z,8.53
2018-05-15T08:22:27.885Z,9.70
2018-05-15T08:24:56.117Z,9.50
2018-05-15T08:27:24.332Z,10.53
2018-05-15T08:29:52.563Z,7.00
2018-05-15T08:32:20.844Z,10.60
2018-05-15T08:34:49.111Z,10.10
2018-05-15T08:37:17.399Z,12.60
2018-05-15T08:39:45.663Z,8.60
2018-05-15T08:42:13.930Z,8.67
2018-05-15T08:44:42.142Z,9.60
2018-05-15T08:47:10.381Z,10.50
2018-05-15T08:49:38.609Z,8.97
2018-05-15T08:52:06.891Z,7.77
2018-05-15T08:54:35.113Z,8.70
2018-05-15T08:57:03.399Z,11.97
2018-05-15T08:59:31.654Z,8.83
2018-05-15T09:01:59.936Z,10.47
2018-05-15T09:04:28.196Z,10.80
2018-05-15T09:06:56.429Z,5.37
2018-05-15T09:09:24.684Z,12.80
2018-05-15T09:11:52.912Z,9.00
2018-05-15T09:14:21.140Z,10.20
2018-05-15T09:16:49.454Z,8.60
2018-05-15T09:19:17.764Z,7.97
2018-05-15T09:21:45.909Z,13.90
2018-05-15T09:24:14.901Z,9.40
2018-05-15T09:26:43.184Z,12.07
2018-05-15T09:29:12.235Z,5.63
2018-05-15T09:31:41.191Z,9.97
2018-05-15T09:34:09.430Z,8.57
2018-05-15T09:36:37.652Z,5.27
2018-05-15T09:39:05.891Z,7.10
2018-05-15T09:41:34.105Z,7.57
2018-05-15T09:44:02.393Z,12.97
2018-05-15T09:46:30.613Z,8.47
2018-05-15T09:48:58.867Z,6.47
2018-05-15T09:51:27.141Z,10.67
2018-05-15T09:53:55.349Z,8.90
2018-05-15T09:56:23.700Z,6.10
2018-05-15T09:58:51.916Z,23.80
2018-05-15T10:01:21.366Z,12.53
2018-05-15T10:03:49.583Z,14.70
2018-05-15T10:06:17.830Z,8.27
2018-05-15T10:08:46.042Z,9.30
2018-05-15T10:11:15.067Z,8.20
2018-05-15T10:13:43.364Z,10.73
2018-05-15T10:16:11.584Z,7.67
2018-05-15T10:18:40.796Z,9.43
2018-05-15T10:21:09.772Z,17.43
2018-05-15T10:23:38.023Z,22.03
2018-05-15T10:26:06.694Z,10.23
2018-05-15T10:28:34.938Z,10.77
2018-05-15T10:31:03.606Z,11.20
2018-05-15T10:33:31.820Z,6.47
2018-05-15T10:36:00.068Z,9.03
2018-05-15T10:38:28.339Z,15.70
2018-05-15T10:40:57.337Z,10.47
2018-05-15T10:43:25.590Z,8.07
2018-05-15T10:45:53.806Z,8.90
2018-05-15T10:48:22.053Z,8.47
2018-05-15T10:50:51.075Z,11.60
2018-05-15T10:53:20.090Z,11.47
2018-05-15T10:55:48.312Z,9.10
2018-05-15T10:58:16.530Z,8.87
2018-05-15T11:00:44.760Z,5.57
2018-05-15T11:03:13.055Z,8.53
2018-05-15T11:05:41.302Z,8.37
2018-05-15T11:08:09.517Z,6.27
2018-05-15T11:10:37.759Z,8.60
2018-05-15T11:13:05.981Z,12.83
2018-05-15T11:15:34.240Z,12.10
2018-05-15T11:18:14.184Z,9.03
2018-05-15T11:20:54.270Z,7.97
2018-05-15T11:23:34.353Z,9.43
2018-05-15T11:26:02.605Z,6.50
2018-05-15T11:28:30.845Z,11.23
2018-05-15T11:30:59.081Z,8.43
2018-05-15T11:33:27.342Z,8.07
2018-05-15T11:35:55.584Z,8.77
2018-05-15T11:38:24.645Z,8.67
2018-05-15T11:40:52.877Z,8.57
2018-05-15T11:43:21.118Z,8.10
2018-05-15T11:45:49.680Z,19.27
2018-05-15T11:48:18.345Z,9.83
2018-05-15T11:50:46.762Z,11.90
2018-05-15T11:53:15.327Z,10.47
2018-05-15T11:55:43.847Z,7.60
2018-05-15T11:58:12.113Z,13.23
2018-05-15T12:00:40.319Z,16.57
2018-05-15T12:03:08.590Z,12.17
2018-05-15T12:05:36.808Z,12.27
2018-05-15T12:08:05.183Z,10.63
2018-05-15T12:10:33.305Z,6.53
2018-05-15T12:13:01.545Z,7.87
2018-05-15T12:15:29.775Z,5.67
2018-05-15T12:17:58.021Z,25.13
2018-05-15T12:20:27.129Z,11.17
2018-05-15T12:22:55.554Z,6.27
2018-05-15T12:25:23.831Z,9.73
2018-05-15T12:27:52.105Z,9.53
2018-05-15T12:30:20.374Z,5.57
2018-05-15T12:32:48.573Z,6.37
2018-05-15T12:35:16.827Z,8.23
2018-05-15T12:37:45.176Z,9.73
2018-05-15T12:40:13.444Z,8.90
2018-05-15T12:42:41.680Z,7.40
2018-05-15T12:45:09.920Z,8.27
2018-05-15T12:47:38.145Z,8.63
2018-05-15T12:50:07.177Z,7.97
2018-05-15T12:52:35.539Z,9.33
2018-05-15T12:55:03.812Z,9.60
2018-05-15T12:57:32.071Z,20.40
2018-05-15T13:00:01.101Z,8.83
2018-05-15T13:02:29.339Z,15.50
2018-05-15T13:04:57.616Z,10.23
2018-05-15T13:07:26.637Z,8.03
2018-05-15T13:09:55.643Z,6.97
2018-05-15T13:12:23.882Z,7.40
2018-05-15T13:14:53.008Z,6.83
2018-05-15T13:17:21.257Z,6.27
2018-05-15T13:19:51.176Z,7.40
2018-05-15T13:22:20.195Z,8.67
2018-05-15T13:24:48.474Z,6.70
2018-05-15T13:27:16.684Z,8.67
2018-05-15T13:29:44.994Z,6.67
2018-05-15T13:32:13.261Z,9.57
2018-05-15T13:34:41.554Z,5.80
2018-05-15T13:37:10.632Z,7.83
2018-05-15T13:39:38.850Z,8.87
2018-05-15T13:42:07.144Z,12.10
2018-05-15T13:44:35.344Z,14.20
2018-05-15T13:47:03.619Z,8.37
2018-05-15T13:49:31.873Z,13.57
2018-05-15T13:52:00.107Z,8.00
2018-05-15T13:54:28.349Z,9.77
2018-05-15T13:56:56.673Z,9.43
2018-05-15T13:59:25.027Z,12.53
2018-05-15T14:01:53.249Z,9.20
2018-05-15T14:04:21.456Z,8.80
2018-05-15T14:06:49.767Z,6.53
2018-05-15T14:09:18.657Z,10.67
2018-05-15T14:11:47.665Z,8.80
2018-05-15T14:14:15.933Z,8.17
2018-05-15T14:16:44.946Z,10.47
2018-05-15T14:19:13.191Z,11.40
2018-05-15T14:21:41.507Z,18.07
2018-05-15T14:24:09.755Z,12.37
2018-05-15T14:26:38.042Z,18.50
2018-05-15T14:29:06.296Z,9.23
2018-05-15T14:31:35.296Z,13.80
2018-05-15T14:34:04.445Z,8.13
2018-05-15T14:36:32.660Z,9.70
2018-05-15T14:39:00.929Z,8.33
2018-05-15T14:41:40.888Z,5.83
2018-05-15T14:44:10.092Z,18.70
2018-05-15T14:46:39.843Z,5.03
2018-05-15T14:49:08.132Z,15.50
2018-05-15T14:51:36.430Z,4.57
2018-05-15T14:54:06.345Z,8.83
2018-05-15T14:56:34.582Z,9.07
2018-05-15T14:59:02.802Z,4.67
2018-05-15T15:01:31.059Z,4.63
2018-05-15T15:03:59.320Z,4.97
2018-05-15T15:06:27.578Z,9.33
2018-05-15T15:08:55.832Z,8.67
2018-05-15T15:11:24.894Z,7.90
2018-05-15T15:13:53.093Z,7.37
2018-05-15T15:16:21.337Z,7.03
2018-05-15T15:18:49.570Z,7.40
2018-05-15T15:21:17.808Z,5.67
2018-05-15T15:23:46.064Z,4.43
2018-05-15T15:26:15.016Z,4.40
2018-05-15T15:28:43.294Z,7.93
2018-05-15T15:31:12.282Z,7.13
2018-05-15T15:33:41.294Z,3.73
2018-05-15T15:36:09.549Z,9.27
2018-05-15T15:38:38.614Z,6.63
2018-05-15T15:41:06.825Z,4.63
2018-05-15T15:43:35.995Z,5.87
2018-05-15T15:46:04.223Z,10.13
2018-05-15T15:48:32.468Z,6.03
2018-05-15T15:51:01.448Z,8.93
2018-05-15T15:53:29.701Z,7.53
2018-05-15T15:55:57.943Z,9.63
2018-05-15T15:58:26.964Z,5.43
2018-05-15T16:00:55.192Z,6.07
2018-05-15T16:03:23.493Z,9.83
2018-05-15T16:05:51.692Z,7.40
2018-05-15T16:08:20.029Z,10.10
2018-05-15T16:10:49.039Z,8.53
2018-05-15T16:13:17.307Z,6.90
2018-05-15T16:15:45.546Z,7.17
2018-05-15T16:18:13.798Z,7.83
2018-05-15T16:20:42.076Z,7.60
2018-05-15T16:23:10.336Z,8.53
2018-05-15T16:25:38.587Z,5.27
2018-05-15T16:28:06.869Z,7.47
2018-05-15T16:30:35.118Z,3.70
2018-05-15T16:33:03.389Z,8.63
2018-05-15T16:35:32.472Z,8.57
2018-05-15T16:38:02.400Z,5.93
2018-05-15T16:40:31.415Z,9.97
2018-05-15T16:42:59.660Z,5.13
2018-05-15T16:45:27.913Z,5.13
2018-05-15T16:47:56.199Z,6.17
2018-05-15T16:50:24.401Z,4.97
2018-05-15T16:52:52.652Z,10.03
2018-05-15T16:55:20.889Z,8.47
2018-05-15T16:57:49.156Z,6.33
2018-05-15T17:00:17.392Z,3.03
2018-05-15T17:02:45.698Z,4.07
2018-05-15T17:05:13.965Z,8.77
2018-05-15T17:07:42.289Z,5.13
2018-05-15T17:10:10.586Z,4.47
2018-05-15T17:12:38.782Z,5.97
2018-05-15T17:15:07.797Z,11.40
2018-05-15T17:17:36.817Z,5.63
2018-05-15T17:20:05.061Z,14.50
2018-05-15T17:22:34.336Z,7.10
2018-05-15T17:25:02.637Z,4.67
2018-05-15T17:27:31.704Z,8.83
2018-05-15T17:30:00.861Z,7.10
2018-05-15T17:32:29.118Z,9.50
2018-05-15T17:34:57.372Z,6.53
2018-05-15T17:37:26.428Z,16.83
2018-05-15T17:39:54.678Z,12.27
2018-05-15T17:42:22.908Z,7.50
2018-05-15T17:44:51.151Z,7.27
2018-05-15T17:47:20.164Z,5.97
2018-05-15T17:49:48.393Z,4.97
2018-05-15T17:52:16.616Z,6.00
2018-05-15T17:54:44.905Z,9.07
2018-05-15T17:57:13.133Z,5.30
2018-05-15T17:59:41.394Z,7.70
2018-05-15T18:02:09.604Z,9.33
2018-05-15T18:04:37.875Z,5.00
2018-05-15T18:07:06.086Z,7.17
2018-05-15T18:09:34.504Z,7.20
2018-05-15T18:12:02.743Z,7.00
2018-05-15T18:14:30.961Z,7.07
2018-05-15T18:16:59.337Z,13.20
2018-05-15T18:19:27.560Z,9.67
2018-05-15T18:21:55.796Z,11.80
2018-05-15T18:24:24.196Z,6.97
2018-05-15T18:26:52.424Z,5.67
2018-05-15T18:29:21.512Z,9.67
2018-05-15T18:31:49.789Z,8.77
2018-05-15T18:34:18.799Z,7.43
2018-05-15T18:36:47.825Z,7.37
2018-05-15T18:39:16.063Z,5.23
2018-05-15T18:41:45.070Z,11.20
2018-05-15T18:44:13.322Z,11.43
2018-05-15T18:46:42.340Z,6.97
2018-05-15T18:49:10.784Z,9.87
2018-05-15T18:51:38.991Z,11.63
2018-05-15T18:54:07.245Z,13.17
2018-05-15T18:56:36.233Z,10.10
2018-05-15T18:59:05.243Z,7.67
2018-05-15T19:01:34.354Z,10.50
2018-05-15T19:04:02.764Z,10.77
2018-05-15T19:06:31.006Z,12.43
2018-05-15T19:08:59.287Z,14.03
2018-05-15T19:11:28.320Z,11.47
2018-05-15T19:13:56.551Z,8.33
2018-05-15T19:16:25.645Z,8.63
2018-05-15T19:18:54.772Z,9.33
2018-05-15T19:21:23.016Z,9.53
2018-05-15T19:23:52.033Z,15.17
2018-05-15T19:26:20.277Z,8.67
2018-05-15T19:28:49.280Z,9.70
2018-05-15T19:31:17.521Z,13.00
2018-05-15T19:33:51.389Z,17.33
2018-05-15T19:36:19.626Z,13.73
2018-05-15T19:38:48.660Z,11.50
2018-05-15T19:41:19.672Z,10.07
2018-05-15T19:43:48.700Z,11.03
2018-05-15T19:46:16.950Z,19.33
2018-05-15T19:48:45.198Z,12.50
2018-05-15T19:51:13.503Z,10.87
2018-05-15T19:53:41.916Z,10.10
2018-05-15T19:56:10.141Z,8.97
2018-05-15T19:58:38.388Z,10.07
2018-05-15T20:01:06.625Z,7.80
2018-05-15T20:03:34.883Z,7.57
2018-05-15T20:06:03.861Z,9.40
2018-05-15T20:08:32.099Z,8.93
2018-05-15T20:11:00.323Z,8.43
2018-05-15T20:13:29.382Z,12.90
2018-05-15T20:15:57.647Z,8.23
2018-05-15T20:18:25.859Z,11.83
2018-05-15T20:20:54.884Z,11.80
2018-05-15T20:23:23.116Z,13.70
2018-05-15T20:25:51.416Z,9.77
2018-05-15T20:28:20.428Z,15.53
2018-05-15T20:30:48.668Z,9.37
2018-05-15T20:33:16.920Z,8.20
2018-05-15T20:35:45.192Z,7.83
2018-05-15T20:38:14.182Z,7.97
2018-05-15T20:40:42.426Z,8.87
2018-05-15T20:43:10.657Z,7.73
2018-05-15T20:45:38.884Z,7.60
2018-05-15T20:48:07.152Z,7.73
2018-05-15T20:50:36.190Z,7.37
2018-05-15T20:53:04.393Z,10.33
2018-05-15T20:55:32.612Z,8.27
2018-05-15T20:58:00.869Z,7.67
2018-05-15T21:00:29.142Z,7.77
2018-05-15T21:02:57.349Z,8.97
2018-05-15T21:05:25.594Z,11.27
2018-05-15T21:07:53.860Z,8.53
2018-05-15T21:10:22.087Z,9.43
2018-05-15T21:12:50.324Z,10.27
2018-05-15T21:15:18.584Z,11.33
2018-05-15T21:17:46.890Z,12.00
2018-05-15T21:20:15.111Z,8.77
2018-05-15T21:22:43.369Z,10.27
2018-05-15T21:25:11.604Z,11.70
2018-05-15T21:27:39.845Z,11.37
2018-05-15T21:30:08.111Z,10.53
2018-05-15T21:32:36.328Z,13.10
2018-05-15T21:35:05.336Z,15.33
2018-05-15T21:37:33.589Z,10.03
2018-05-15T21:40:01.814Z,15.50
2018-05-15T21:42:30.056Z,12.00
2018-05-15T21:44:58.296Z,18.53
2018-05-15T21:47:26.545Z,18.20
2018-05-15T21:49:54.836Z,13.10
2018-05-15T21:52:23.121Z,16.53
2018-05-15T21:54:51.383Z,19.13
2018-05-15T21:57:19.608Z,28.57
2018-05-15T21:59:48.644Z,23.17
2018-05-15T22:02:16.894Z,14.87
2018-05-15T22:04:45.166Z,14.57
2018-05-15T22:07:13.417Z,11.23
2018-05-15T22:09:42.442Z,14.13
2018-05-15T22:12:22.539Z,13.03
2018-05-15T22:15:08.763Z,13.77
2018-05-15T22:17:55.590Z,15.47
2018-05-15T22:20:41.560Z,16.30
2018-05-15T22:23:15.200Z,18.27
2018-05-15T22:25:43.239Z,17.70
2018-05-15T22:28:11.486Z,19.27
2018-05-15T22:30:39.820Z,31.30
2018-05-15T22:33:08.056Z,32.27
2018-05-15T22:35:36.317Z,23.90
2018-05-15T22:38:04.546Z,25.70
2018-05-15T22:40:33.564Z,19.10
2018-05-15T22:43:01.824Z,22.90
2018-05-15T22:45:30.819Z,19.37
2018-05-15T22:47:59.068Z,19.93
2018-05-15T22:50:27.317Z,18.50
2018-05-15T22:52:55.567Z,21.83
2018-05-15T22:55:23.842Z,20.57
2018-05-15T22:57:52.073Z,27.80
2018-05-15T23:00:21.088Z,22.00
2018-05-15T23:02:49.353Z,21.43
2018-05-15T23:05:17.575Z,19.97
2018-05-15T23:07:45.833Z,20.93
2018-05-15T23:10:14.079Z,21.20
2018-05-15T23:12:43.078Z,24.10
2018-05-15T23:15:12.090Z,19.27
2018-05-15T23:17:40.327Z,22.73
2018-05-15T23:20:08.584Z,20.47
2018-05-15T23:22:42.664Z,20.67
2018-05-15T23:25:10.896Z,26.47
2018-05-15T23:27:39.959Z,23.17
2018-05-15T23:30:08.185Z,23.77
2018-05-15T23:32:37.225Z,26.87
2018-05-15T23:35:05.460Z,21.67
2018-05-15T23:37:33.741Z,22.07
2018-05-15T23:40:02.019Z,18.70
2018-05-15T23:42:30.227Z,22.23
2018-05-15T23:44:58.544Z,18.90
2018-05-15T23:47:26.818Z,18.17
2018-05-15T23:49:55.818Z,15.10
2018-05-15T23:52:24.114Z,17.20
2018-05-15T23:54:52.347Z,18.30
2018-05-15T23:57:20.632Z,19.20
2018-05-15T23:59:48.872Z,21.07
